1956 Tropical Low NOT_NAMED (1956351S10133)


IBTrACS version v04r00. Visit IBTrACS website for data access.
Please direct all questions to the IBTrACS Q and A forum

Storm track - Intensity - Wind Radii - Intensity Data - Source Data - All data

Summary Information

Storm ID 1956351S10133
Start Dec 16 11Z
Landfall Dec 16 15Z, Dec 20 21Z
Max Intensity 982 mb (Dec 21 05Z)
End Dec 26 06Z
ATCF IDs ,SH071957,SH081957
Track status Best track data.

Storm track plot

Map of storm track

Intensity plots

Map of storm track

Radial wind information

No radial wind information for this storm


Position and Intensity Table

BASIN ISO_TIME_________ NATURE LAT LON WMO PRES BOM PRES
degrees north degrees east mb mb
SI 1956-12-16 11:00:00 NR -10.00 133.30
SI 12:00:00 TS -10.55 133.38
SI 15:00:00 TS -12.18 133.59
SI 18:00:00 TS -13.53 133.80
SI 21:00:00 TS -14.39 134.04
SI 23:00:00 TS -14.68 134.21
SI 1956-12-17 00:00:00 TS -14.74 134.29
SI 03:00:00 TS -14.74 134.55
SI 06:00:00 TS -14.52 134.80
SP 09:00:00 TS -14.34 135.05
SP 11:00:00 TS -14.22 135.21
SP 12:00:00 TS -14.18 135.29
SP 15:00:00 TS -14.00 135.52
SP 18:00:00 TS -13.84 135.71
SP 21:00:00 TS -13.69 135.87
SP 23:00:00 TS -13.68 135.91
SP 1956-12-18 00:00:00 TS -13.73 135.89
SP 03:00:00 TS -14.12 135.67
SP 05:00:00 TS -14.51 135.42 997 997
SP 06:00:00 TS -14.72 135.23
SP 09:00:00 TS -15.14 135.07
SP 11:00:00 TS -15.32 135.04
SP 12:00:00 TS -15.36 135.06
SP 15:00:00 TS -15.33 135.28
SP 18:00:00 TS -15.22 135.59
SP 21:00:00 TS -15.18 135.91
SP 23:00:00 TS -15.19 136.13
SP 1956-12-19 00:00:00 TS -15.22 136.23
SP 03:00:00 TS -15.39 136.54
SP 05:00:00 TS -15.52 136.76 997 997
SP 06:00:00 TS -15.59 136.87
SP 09:00:00 TS -15.77 137.22
SP 11:00:00 TS -15.88 137.47
SP 12:00:00 TS -15.93 137.59
SP 14:00:00 TS -16.05 137.87
SP 15:00:00 TS -16.10 137.99
SP 18:00:00 TS -16.21 138.32
SP 21:00:00 TS -16.37 138.55
SP 23:00:00 TS -16.48 138.69 997 997
SP 1956-12-20 00:00:00 TS -16.51 138.75 996
SP 03:00:00 TS -16.65 138.97 996
SP 05:00:00 TS -16.73 139.11 996 996
SP 06:00:00 TS -16.80 139.40
SP 09:00:00 TS -16.93 139.80
SP 11:00:00 TS -17.02 140.10
SP 12:00:00 TS -17.07 140.30
SP 15:00:00 TS -17.20 140.53
SP 18:00:00 TS -17.34 140.76
SP 21:00:00 TS -17.46 140.97
SP 23:00:00 TS -17.56 141.13 992 992
SP 1956-12-21 00:00:00 TS -17.63 141.23 990
SP 02:00:00 TS -17.79 141.44 988 988
SP 03:00:00 TS -17.89 141.58 986
SP 05:00:00 TS -18.09 141.84 982 982
SP 06:00:00 TS -18.16 141.94 982 982
SP 06:30:00 TS -18.23 142.03 982 982
SP 08:00:00 TS -18.41 142.28 986 986
SP 09:00:00 TS -18.52 142.48 987
SP 11:00:00 TS -18.74 142.97 990 990
SP 12:00:00 TS -18.80 143.22 990
SP 15:00:00 TS -19.04 143.98 992
SP 18:00:00 TS -19.32 144.79 995
SP 20:00:00 TS -19.48 145.33 996
SP 21:00:00 TS -19.56 145.60 997
SP 23:00:00 TS -19.67 146.02 999 999
SP 1956-12-22 00:00:00 TS -19.68 146.21
SP 03:00:00 TS -19.83 146.78
SP 05:00:00 TS -19.88 147.14
SP 06:00:00 TS -19.90 147.30
SP 09:00:00 TS -19.92 147.73
SP 11:00:00 TS -19.91 147.99
SP 12:00:00 TS -19.90 148.11
SP 15:00:00 TS -19.85 148.46
SP 17:00:00 TS -19.82 148.69
SP 18:00:00 TS -19.80 148.80
SP 21:00:00 TS -19.73 149.12
SP 23:00:00 TS -19.69 149.33
SP 1956-12-23 00:00:00 TS -19.68 149.44
SP 03:00:00 TS -19.67 149.74
SP 05:00:00 TS -19.74 150.01
SP 06:00:00 TS -19.80 150.20
SP 09:00:00 TS -20.14 151.01
SP 11:00:00 TS -20.45 151.67
SP 12:00:00 TS -20.63 152.02
SP 15:00:00 TS -21.59 153.14
SP 17:00:00 TS -22.00 153.70
SP 18:00:00 TS -22.16 153.89
SP 21:00:00 TS -22.22 154.49
SP 23:00:00 TS -22.29 154.96
SP 1956-12-24 00:00:00 TS -22.38 155.21
SP 03:00:00 TS -22.82 156.07
SP 06:00:00 TS -23.40 157.05
SP 09:00:00 TS -23.96 158.10
SP 11:00:00 TS -24.30 158.84
SP 12:00:00 TS -24.44 159.16
SP 15:00:00 TS -24.80 160.14
SP 18:00:00 TS -25.07 160.87
SP 21:00:00 TS -25.28 161.19
SP 23:00:00 TS -25.42 161.36
SP 1956-12-25 00:00:00 TS -25.50 161.19
SP 03:00:00 TS -25.74 161.73
SP 06:00:00 TS -26.00 162.30
SP 09:00:00 TS -26.33 163.00
SP 12:00:00 TS -26.70 163.72
SP 15:00:00 TS -27.09 164.42
SP 18:00:00 TS -27.50 165.00
SP 21:00:00 TS -27.94 165.42
SP 1956-12-26 00:00:00 TS -28.39 165.67
SP 03:00:00 TS -28.85 165.77
SP 06:00:00 TS -29.30 165.80

Source Information

Agency Information
USA bsh071957.txt::bsh081957.txt
TOKYO
CMA
HKO
NEWDELHI
REUNION
BOM IDCKMSTM0S.csv:Line=2219:unnamed
NADI
WELLINGTON
DS824 s_hem.dat:692:07S
TD9636 cons_worldwide_trop_cyclone_18710101-19891231-006:Line=4727
TD9635
NEUMANN
MLC

All available IBTrACS Data

SEASON BASIN SUBBASIN ISO_TIME_________ NATURE LAT LON WMO PRES WMO AGENCY DIST2LAND LANDFALL IFLAG USA AGENCY USA ATCF_ID USA LAT USA LON USA SSHS BOM LAT BOM LON BOM PRES BOM PRES_METHOD DS824 LAT DS824 LON DS824 STAGE TD9636 LAT TD9636 LON TD9636 STAGE STORM SPEED STORM DIR
Year degrees north degrees east mb km km degrees north degrees east 1 degrees north degrees east mb degrees north degrees east degrees north degrees east kts degrees
1957 SI WA 1956-12-16 11:00:00 NR -10.00 133.30 162 114 __________O___ -1 -10.00 133.30 1 34 172
1957 SI WA 12:00:00 TS -10.55 133.38 104 0 O________OP___ jtwc_sh SH071957 -10.60 133.40 -1 -10.60 133.40 TC -10.51 133.37 1 33 173
1957 SI WA 15:00:00 TS -12.18 133.59 0 0 P________PP___ SH071957 -12.33 133.59 -1 -12.33 133.59 TC -11.98 133.58 1 30 172
1957 SI WA 18:00:00 TS -13.53 133.80 0 0 O________OP___ jtwc_sh SH071957 -13.70 133.80 -1 -13.70 133.80 TC -13.28 133.80 1 23 169
1957 SI WA 21:00:00 TS -14.39 134.04 0 0 P________PP___ SH071957 -14.45 134.04 -1 -14.45 134.04 TC -14.27 134.04 1 15 161
1957 SI WA 23:00:00 TS -14.68 134.21 0 0 P________PO___ SH071957 -14.66 134.21 -1 -14.66 134.21 TC -14.70 134.20 1 9 145
1957 SI WA 1956-12-17 00:00:00 TS -14.74 134.29 0 0 O________OP___ jtwc_sh SH071957 -14.70 134.30 -1 -14.70 134.30 TC -14.83 134.28 1 5 101
1957 SI WA 03:00:00 TS -14.74 134.55 0 0 P________PP___ SH071957 -14.64 134.55 -1 -14.64 134.55 TC -14.94 134.54 1 5 65
1957 SI WA 06:00:00 TS -14.52 134.80 0 0 O________OP___ jtwc_sh SH071957 -14.40 134.80 -1 -14.40 134.80 TC -14.75 134.80 1 6 51
1957 SP EA 09:00:00 TS -14.34 135.05 0 0 P________PP___ SH071957 -14.30 135.06 -1 -14.30 135.06 TC -14.42 135.05 1 6 54
1957 SP EA 11:00:00 TS -14.22 135.21 0 0 P________PO___ SH071957 -14.24 135.22 -1 -14.24 135.22 TC -14.20 135.20 1 6 55
1957 SP EA 12:00:00 TS -14.18 135.29 0 0 O________OP___ jtwc_sh SH071957 -14.20 135.30 -1 -14.20 135.30 TC -14.13 135.28 1 6 54
1957 SP EA 15:00:00 TS -14.00 135.52 0 0 P________PP___ SH071957 -14.05 135.52 -1 -14.05 135.52 TC -13.91 135.53 1 5 51
1957 SP EA 18:00:00 TS -13.84 135.71 0 0 O________OP___ jtwc_sh SH071957 -13.90 135.70 -1 -13.90 135.70 TC -13.73 135.73 1 5 47
1957 SP EA 21:00:00 TS -13.69 135.87 0 0 P________PP___ SH071957 -13.71 135.87 -1 -13.71 135.87 TC -13.66 135.87 1 3 49
1957 SP EA 23:00:00 TS -13.68 135.91 0 0 P________PO___ SH071957 -13.67 135.91 -1 -13.67 135.91 TC -13.70 135.90 1 1 171
1957 SP EA 1956-12-18 00:00:00 TS -13.73 135.89 0 0 O________OP___ jtwc_sh SH071957 -13.70 135.90 -1 -13.70 135.90 TC -13.79 135.87 1 8 208
1957 SP EA 03:00:00 TS -14.12 135.67 0 0 P________PP___ SH071957 -14.08 135.67 -1 -14.08 135.67 TC -14.21 135.68 1 11 211
1957 SP EA 05:00:00 TS -14.51 135.42 997 bom 0 0 P_____O__PP___ SH071957 -14.43 135.47 -1 -15.00 134.50 997 -14.43 135.47 TC -14.55 135.53 1 15 215
1957 SP EA 06:00:00 TS -14.72 135.23 0 0 O_____P__OP___ jtwc_sh SH071957 -14.60 135.40 -1 -15.05 134.49 -14.60 135.40 TC -14.72 135.46 1 11 208
1957 SP EA 09:00:00 TS -15.14 135.07 0 0 P_____P__PP___ SH071957 -15.10 135.30 -1 -15.19 134.45 -15.10 135.30 TC -15.18 135.31 1 8 198
1957 SP EA 11:00:00 TS -15.32 135.04 0 0 P_____P__PO___ SH071957 -15.34 135.34 -1 -15.28 134.43 -15.34 135.34 TC -15.40 135.30 1 4 0
1957 SP EA 12:00:00 TS -15.36 135.06 0 0 O_____P__OP___ jtwc_sh SH071957 -15.40 135.40 -1 -15.32 134.43 -15.40 135.40 TC -15.41 135.36 1 4 92
1957 SP EA 15:00:00 TS -15.33 135.28 0 0 P_____P__PP___ SH071957 -15.26 135.74 -1 -15.43 134.45 -15.26 135.74 TC -15.30 135.67 1 5 75
1957 SP EA 18:00:00 TS -15.22 135.59 0 0 O_____P__OP___ jtwc_sh SH071957 -15.00 136.20 -1 -15.52 134.52 -15.00 136.20 TC -15.10 136.11 1 6 76
1957 SP EA 21:00:00 TS -15.18 135.91 10 10 P_____P__PP___ SH071957 -14.92 136.61 -1 -15.58 134.66 -14.92 136.61 TC -14.93 136.59 1 6 87
1957 SP EA 23:00:00 TS -15.19 136.13 15 15 P_____P__PO___ SH071957 -14.95 136.87 -1 -15.59 134.80 -14.95 136.87 TC -14.90 136.90 1 6 98
1957 SP EA 1956-12-19 00:00:00 TS -15.22 136.23 22 15 O_____P__OP___ jtwc_sh SH071957 -15.00 137.00 -1 -15.59 134.89 -15.00 137.00 TC -14.95 137.02 1 7 116
1957 SP EA 03:00:00 TS -15.39 136.54 30 24 P_____P__PP___ SH071957 -15.30 137.36 -1 -15.55 135.22 -15.30 137.36 TC -15.22 137.37 1 7 120
1957 SP EA 05:00:00 TS -15.52 136.76 997 bom 35 24 P_____O__PP___ SH071957 -15.56 137.59 -1 -15.50 135.50 997 -15.56 137.59 TC -15.46 137.60 1 8 123
1957 SP EA 06:00:00 TS -15.59 136.87 30 22 O_____P__OP___ jtwc_sh SH071957 -15.70 137.70 -1 -15.46 135.66 -15.70 137.70 TC -15.60 137.71 1 8 119
1957 SP EA 09:00:00 TS -15.77 137.22 22 22 P_____P__PP___ SH071957 -16.05 138.03 -1 -15.32 136.18 -16.05 138.03 TC -16.02 138.06 1 8 117
1957 SP EA 11:00:00 TS -15.88 137.47 24 24 P_____P__PO___ SH071957 -16.28 138.27 -1 -15.23 136.52 -16.28 138.27 TC -16.30 138.30 1 8 115
1957 SP EA 12:00:00 TS -15.93 137.59 30 22 O_____P__OP___ jtwc_sh SH071957 -16.40 138.40 -1 -15.18 136.66 -16.40 138.40 TC -16.43 138.44 1 8 114
1957 SP EA 14:00:00 TS -16.05 137.87 bom 30 24 P_____O__PP___ SH071957 -16.64 138.74 -1 -15.10 136.90 -16.64 138.74 TC -16.69 138.73 1 8 114
1957 SP EA 15:00:00 TS -16.10 137.99 33 33 P_____P__PP___ SH071957 -16.76 138.91 -1 -15.06 136.95 -16.76 138.91 TC -16.82 138.87 1 7 111
1957 SP EA 18:00:00 TS -16.21 138.32 54 44 O_____P__OP___ jtwc_sh SH071957 -17.10 139.40 -1 -14.96 136.99 -17.10 139.40 TC -17.18 139.30 1 6 117
1957 SP EA 21:00:00 TS -16.37 138.55 44 35 P_____P__PP___ SH071957 -17.46 139.70 -1 -14.94 136.97 -17.46 139.70 TC -17.47 139.68 1 5 126
1957 SP EA 23:00:00 TS -16.48 138.69 997 bom 35 35 P_____O__PO___ SH071957 -17.64 139.84 -1 -15.00 137.00 997 -17.64 139.84 TC -17.60 139.90 1 5 125
1957 SP EA 1956-12-20 00:00:00 TS -16.51 138.75 39 30 O_____P__OP___ jtwc_sh SH071957 -17.70 139.90 -1 -15.05 137.06 996 -17.70 139.90 TC -17.63 139.98 1 5 124
1957 SP EA 03:00:00 TS -16.65 138.97 22 22 P_____P__PP___ SH071957 -17.71 140.07 -1 -15.30 137.30 996 -17.71 140.07 TC -17.62 140.18 1 5 123
1957 SP EA 05:00:00 TS -16.73 139.11 996 bom 24 22 P_____O__PP___ SH071957 -17.64 140.16 -1 -15.50 137.50 996 -17.64 140.16 TC -17.57 140.28 1 9 109
1957 SP EA 06:00:00 TS -16.80 139.40 30 30 O_____P__OP___ jtwc_sh SH071957 -17.60 140.20 -1 -15.61 137.60 -17.60 140.20 TC -17.54 140.32 1 10 107
1957 SP EA 09:00:00 TS -16.93 139.80 64 61 P_____P__PP___ SH071957 -17.48 140.35 -1 -15.99 137.93 -17.48 140.35 TC -17.44 140.43 1 8 108
1957 SP EA 11:00:00 TS -17.02 140.10 74 64 P_____P__PO___ SH071957 -17.42 140.45 -1 -16.27 138.18 -17.42 140.45 TC -17.40 140.50 2 10 107
1957 SP EA 12:00:00 TS -17.07 140.30 64 46 O_____P__OP___ jtwc_sh SH071957 -17.40 140.50 -1 -16.41 138.31 -17.40 140.50 TC -17.39 140.53 2 7 114
1957 SP EA 15:00:00 TS -17.20 140.53 46 23 P_____P__PP___ SH071957 -17.41 140.64 -1 -16.82 138.74 -17.41 140.64 TC -17.38 140.63 2 5 122
1957 SP EA 18:00:00 TS -17.34 140.76 15 0 O_____P__OP___ jtwc_sh SH071957 -17.50 140.80 -1 -17.17 139.19 -17.50 140.80 TC -17.43 140.74 2 5 122
1957 SP EA 21:00:00 TS -17.46 140.97 0 0 P_____P__PP___ SH071957 -17.59 140.96 -1 -17.42 139.67 -17.59 140.96 TC -17.56 140.92 2 5 122
1957 SP EA 23:00:00 TS -17.56 141.13 992 bom 0 0 P_____O__PO___ SH071957 -17.71 141.11 -1 -17.50 140.00 992 -17.71 141.11 TC -17.70 141.10 1 6 123
1957 SP EA 1956-12-21 00:00:00 TS -17.63 141.23 0 0 O_____P__OP___ jtwc_sh SH071957 -17.80 141.20 -1 -17.50 140.17 990 -17.80 141.20 TC -17.81 141.21 1 8 126
1957 SP EA 02:00:00 TS -17.79 141.44 988 bom 0 0 P_____O__PP___ SH071957 -18.06 141.41 -1 -17.50 140.50 988 -18.06 141.41 TC -18.07 141.46 1 9 128
1957 SP EA 03:00:00 TS -17.89 141.58 0 0 P_____P__PP___ SH071957 -18.21 141.53 -1 -17.59 140.76 986 -18.21 141.53 TC -18.22 141.61 1 10 129
1957 SP EA 05:00:00 TS -18.09 141.84 982 bom 0 0 P_____O__PP___ SH071957 -18.54 141.83 -1 -17.60 141.00 982 4 -18.54 141.83 TC -18.53 141.93 1 9 128
1957 SP EA 06:00:00 TS -18.16 141.94 982 bom 0 0 O_____O__OP___ jtwc_sh SH071957 -18.70 142.00 -1 -17.40 140.80 982 -18.70 142.00 TC -18.69 142.10 1 9 128
1957 SP EA 06:30:00 TS -18.23 142.03 982 bom 0 0 P_____O__PP___ SH071957 -18.77 142.09 -1 -17.70 141.20 982 -18.77 142.09 TC -18.77 142.19 1 12 128
1957 SP EA 08:00:00 TS -18.41 142.28 986 bom 0 0 P_____O__PP___ SH071957 -19.00 142.39 -1 -18.00 141.30 986 -19.00 142.39 TC -19.00 142.48 1 12 124
1957 SP EA 09:00:00 TS -18.52 142.48 0 0 P_____P__PP___ SH071957 -19.14 142.60 -1 -18.18 141.59 987 -19.14 142.60 TC -19.14 142.68 1 15 117
1957 SP EA 11:00:00 TS -18.74 142.97 990 bom 0 0 P_____O__PO___ SH071957 -19.39 143.06 -1 -18.50 142.50 990 -19.39 143.06 TC -19.40 143.10 1 15 112
1957 SP EA 12:00:00 TS -18.80 143.22 0 0 O_____P__OP___ jtwc_sh SH071957 -19.50 143.30 -1 -18.65 142.95 990 -19.50 143.30 TC -19.51 143.32 1 15 107
1957 SP EA 15:00:00 TS -19.04 143.98 0 0 P_____P__PP___ SH071957 -19.77 143.98 -1 -19.05 144.09 992 -19.74 144.00 TC -19.75 144.01 1 16 109
1957 SP EA 18:00:00 TS -19.32 144.79 0 0 O_____P__OP___ jtwc_sh SH071957 -19.90 144.70 -1 -19.42 144.96 995 -19.90 144.70 TC -19.89 144.74 1 16 109
1957 SP EA 20:00:00 TS -19.48 145.33 0 0 P_____P___P___ SH071957 -19.86 145.21 -1 -19.66 145.45 996 TC -19.94 145.24 1 16 108
1957 SP EA 21:00:00 TS -19.56 145.60 0 0 P_____P___P___ SH071957 -19.82 145.47 -1 -19.77 145.67 997 TC -19.96 145.49 1 14 107
1957 SP EA 23:00:00 TS -19.67 146.02 999 bom 0 0 P_____O___O___ SH071957 -19.73 145.97 -1 -20.00 146.10 999 TC -20.00 146.00 1 12 102
1957 SP EA 1956-12-22 00:00:00 TS -19.68 146.21 0 0 O_____________ jtwc_sh SH081957 -19.70 146.20 -1 1 11 102
1957 SP EA 03:00:00 TS -19.83 146.78 0 0 P_____________ SH081957 -19.78 146.80 -1 1 11 103
1957 SP EA 05:00:00 TS -19.88 147.14 0 0 P_____________ SH081957 -19.87 147.14 -1 1 10 99
1957 SP EA 06:00:00 TS -19.90 147.30 0 0 O_____________ jtwc_sh SH081957 -19.90 147.30 -1 1 8 94
1957 SP EA 09:00:00 TS -19.92 147.73 0 0 P_____________ SH081957 -19.92 147.73 -1 1 8 91
1957 SP EA 11:00:00 TS -19.91 147.99 10 10 P_____________ SH081957 -19.91 147.98 -1 7 86
1957 SP EA 12:00:00 TS -19.90 148.11 11 11 O_____________ jtwc_sh SH081957 -19.90 148.10 -1 7 83
1957 SP EA 15:00:00 TS -19.85 148.46 23 23 P_____________ SH081957 -19.86 148.46 -1 7 81
1957 SP EA 17:00:00 TS -19.82 148.69 45 45 P_____________ SH081957 -19.82 148.69 -1 6 80
1957 SP EA 18:00:00 TS -19.80 148.80 49 49 O_____________ jtwc_sh SH081957 -19.80 148.80 -1 6 77
1957 SP EA 21:00:00 TS -19.73 149.12 74 74 P_____________ SH081957 -19.73 149.15 -1 6 77
1957 SP EA 23:00:00 TS -19.69 149.33 85 85 P_____________ SH081957 -19.71 149.38 -1 6 81
1957 SP EA 1956-12-23 00:00:00 TS -19.68 149.44 91 91 O_____________ jtwc_sh SH081957 -19.70 149.50 -1 6 87
1957 SP EA 03:00:00 TS -19.67 149.74 115 115 P_____________ SH081957 -19.68 149.77 -1 7 96
1957 SP EA 05:00:00 TS -19.74 150.01 142 142 P_____________ SH081957 -19.74 150.02 -1 9 106
1957 SP EA 06:00:00 TS -19.80 150.20 156 156 O_____________ jtwc_sh SH081957 -19.80 150.20 -1 15 113
1957 SP EA 09:00:00 TS -20.14 151.01 218 218 P_____________ SH081957 -20.12 150.99 -1 18 115
1957 SP EA 11:00:00 TS -20.45 151.67 236 236 P_____________ SH081957 -20.43 151.65 -1 21 117
1957 SP EA 12:00:00 TS -20.63 152.02 242 235 O_____________ jtwc_sh SH081957 -20.60 152.00 -1 27 130
1957 SP EA 15:00:00 TS -21.59 153.14 257 257 P_____________ SH081957 -21.21 153.12 -1 25 131
1957 SP EA 17:00:00 TS -22.00 153.70 303 302 P_____________ SH081957 -21.62 153.86 -1 18 129
1957 SP EA 18:00:00 TS -22.16 153.89 296 296 O_____________ jtwc_sh SH081957 -21.80 154.20 -1 12 107
1957 SP EA 21:00:00 TS -22.22 154.49 315 315 P_____________ SH081957 -22.18 155.00 -1 12 98
1957 SP EA 23:00:00 TS -22.29 154.96 328 328 P_____________ SH081957 -22.39 155.47 -1 14 103
1957 SP EA 1956-12-24 00:00:00 TS -22.38 155.21 330 330 O_____________ jtwc_sh SH081957 -22.50 155.70 -1 17 117
1957 SP EA 03:00:00 TS -22.82 156.07 361 361 P_____________ SH081957 -22.88 156.46 -1 20 121
1957 SP EA 06:00:00 TS -23.40 157.05 406 406 O_____________ jtwc_sh SH081957 -23.30 157.20 -1 22 121
1957 SP EA 09:00:00 TS -23.96 158.10 488 488 P_____________ SH081957 -23.75 157.91 -1 22 119
1957 SP EA 11:00:00 TS -24.30 158.84 550 550 P_____________ SH081957 -24.05 158.37 -1 22 116
1957 SP EA 12:00:00 TS -24.44 159.16 589 587 O_____________ jtwc_sh SH081957 -24.20 158.60 -1 19 113
1957 SP MM 15:00:00 TS -24.80 160.14 620 580 P_____________ SH081957 -24.63 159.32 -1 17 112
1957 SP MM 18:00:00 TS -25.07 160.87 581 574 O_____________ jtwc_sh SH081957 -25.00 160.00 -1 11 117
1957 SP MM 21:00:00 TS -25.28 161.19 576 569 P_____________ SH081957 -25.27 160.62 -1 7 128
1957 SP MM 23:00:00 TS -25.42 161.36 572 572 P_____________ SH081957 -25.42 161.01 -1 5 0
1957 SP MM 1956-12-25 00:00:00 TS -25.50 161.19 593 580 O_____________ jtwc_sh SH081957 -25.50 161.20 -1 7 134
1957 SP MM 03:00:00 TS -25.74 161.73 580 573 P_____________ SH081957 -25.73 161.74 -1 11 116
1957 SP MM 06:00:00 TS -26.00 162.30 578 564 O_____________ jtwc_sh SH081957 -26.00 162.30 -1 13 117
1957 SP MM 09:00:00 TS -26.33 163.00 564 557 P_____________ SH081957 -26.33 162.99 -1 15 119
1957 SP MM 12:00:00 TS -26.70 163.72 562 557 O_____________ jtwc_sh SH081957 -26.70 163.70 -1 15 121
1957 SP MM 15:00:00 TS -27.09 164.42 573 569 P_____________ SH081957 -27.09 164.40 -1 14 125
1957 SP MM 18:00:00 TS -27.50 165.00 594 592 O_____________ jtwc_sh SH081957 -27.50 165.00 -1 12 134
1957 SP MM 21:00:00 TS -27.94 165.42 628 628 P_____________ SH081957 -27.94 165.44 -1 11 147
1957 SP MM 1956-12-26 00:00:00 TS -28.39 165.67 677 677 O_____________ jtwc_sh SH081957 -28.40 165.70 -1 10 161
1957 SP MM 03:00:00 TS -28.85 165.77 720 720 P_____________ SH081957 -28.85 165.80 -1 9 173
1957 SP MM 06:00:00 TS -29.30 165.80 776 O_____________ jtwc_sh SH081957 -29.30 165.80 -1 9 177